Time;durP1;ratioP1;P1;durP2;ratioP2;P2;SDS_P1;SDS_P2;PMS_P1;PMS_P2;Temp;Humidity;BMP_temperature;BMP_pressure;BME280_temperature;BME280_humidity;BME280_pressure;Samples;Min_cycle;Max_cycle;Signal;HPM_P1;HPM_P2
2023/08/23 01:02:46;;;;;;;1.45;1.35;;;;;;;;;;10370513;23;20693;-83
2023/08/23 01:07:56;;;;;;;3.67;1.65;;;;;;;;;;10308091;28;20051;-83
2023/08/23 01:13:08;;;;;;;2.83;2.08;;;;;;;;;;10288218;28;20050;-84
2023/08/23 01:18:14;;;;;;;2.78;1.70;;;;;;;;;;10287846;28;20518;-82
2023/08/23 01:23:20;;;;;;;2.40;1.67;;;;;;;;;;10280086;28;20050;-83
2023/08/23 01:28:23;;;;;;;2.25;1.83;;;;;;;;;;10288255;28;20081;-83
2023/08/23 01:33:32;;;;;;;2.40;1.70;;;;;;;;;;10285540;28;20057;-83
2023/08/23 01:38:40;;;;;;;3.58;1.73;;;;;;;;;;10286818;28;20065;-82
2023/08/23 01:43:45;;;;;;;1.70;1.58;;;;;;;;;;10299061;28;20109;-83
2023/08/23 01:48:48;;;;;;;2.70;2.15;;;;;;;;;;10291175;28;20530;-82
2023/08/23 01:53:53;;;;;;;3.85;1.90;;;;;;;;;;10282484;28;20051;-82
2023/08/23 01:58:56;;;;;;;3.65;1.70;;;;;;;;;;10279644;28;20078;-83
2023/08/23 02:04:00;;;;;;;2.35;1.90;;;;;;;;;;10307306;28;20096;-82
2023/08/23 02:09:04;;;;;;;3.53;1.70;;;;;;;;;;10298895;28;20042;-83
2023/08/23 02:14:08;;;;;;;2.78;1.67;;;;;;;;;;10294748;28;20056;-83
2023/08/23 02:19:11;;;;;;;2.13;1.48;;;;;;;;;;10294065;28;20115;-83
2023/08/23 02:24:16;;;;;;;3.28;1.60;;;;;;;;;;10274516;28;20082;-83
2023/08/23 02:29:19;;;;;;;2.33;1.65;;;;;;;;;;10298904;28;20744;-82
2023/08/23 02:34:22;;;;;;;2.72;1.40;;;;;;;;;;10283896;28;20503;-83
2023/08/23 02:39:27;;;;;;;4.65;1.70;;;;;;;;;;10279410;28;20447;-83
2023/08/23 02:44:32;;;;;;;2.40;1.75;;;;;;;;;;10291583;28;20046;-83
2023/08/23 02:49:35;;;;;;;3.00;1.55;;;;;;;;;;10307768;28;20129;-83
2023/08/23 02:54:40;;;;;;;1.75;1.45;;;;;;;;;;10303303;28;20085;-83
2023/08/23 02:59:43;;;;;;;3.33;1.83;;;;;;;;;;10309661;28;20073;-83
2023/08/23 03:04:46;;;;;;;2.35;1.48;;;;;;;;;;10319538;28;20133;-83
2023/08/23 03:09:51;;;;;;;2.55;1.48;;;;;;;;;;10298577;28;20051;-83
2023/08/23 03:14:54;;;;;;;1.90;1.42;;;;;;;;;;10313229;28;20137;-83
2023/08/23 03:19:58;;;;;;;1.70;1.58;;;;;;;;;;10298220;28;20050;-83
2023/08/23 03:25:02;;;;;;;2.03;1.30;;;;;;;;;;10292027;28;20059;-82
2023/08/23 03:30:07;;;;;;;2.38;1.20;;;;;;;;;;10283643;28;20047;-83
2023/08/23 03:35:11;;;;;;;1.90;1.40;;;;;;;;;;10297793;28;20053;-83
2023/08/23 03:40:17;;;;;;;2.90;1.55;;;;;;;;;;10296565;28;20110;-83
2023/08/23 03:45:21;;;;;;;2.47;1.40;;;;;;;;;;10289911;28;20054;-83
2023/08/23 03:50:25;;;;;;;4.22;1.60;;;;;;;;;;10300474;28;20077;-83
2023/08/23 03:55:31;;;;;;;1.75;1.63;;;;;;;;;;10304633;28;20051;-83
2023/08/23 04:00:36;;;;;;;4.35;1.20;;;;;;;;;;10297648;28;20054;-83
2023/08/23 04:05:41;;;;;;;2.17;1.77;;;;;;;;;;10304486;28;20050;-83
2023/08/23 04:10:48;;;;;;;3.20;1.60;;;;;;;;;;10295438;28;20089;-83
2023/08/23 04:15:52;;;;;;;2.20;1.48;;;;;;;;;;10291134;28;20133;-82
2023/08/23 04:21:00;;;;;;;6.88;1.27;;;;;;;;;;10287844;28;20121;-82
2023/08/23 04:26:05;;;;;;;1.45;1.20;;;;;;;;;;10309157;28;20047;-83
2023/08/23 04:31:08;;;;;;;4.05;1.58;;;;;;;;;;10310421;28;20150;-82
2023/08/23 04:36:20;;;;;;;1.70;1.40;;;;;;;;;;10306746;28;20058;-82
2023/08/23 04:41:25;;;;;;;1.90;1.40;;;;;;;;;;10284122;28;20085;-83
2023/08/23 04:46:28;;;;;;;1.40;1.20;;;;;;;;;;10288043;28;20074;-83
2023/08/23 04:51:32;;;;;;;1.60;1.27;;;;;;;;;;10290041;28;20094;-82
2023/08/23 04:56:37;;;;;;;1.95;1.33;;;;;;;;;;10296275;28;20057;-82
2023/08/23 05:01:40;;;;;;;1.63;1.52;;;;;;;;;;10288654;28;20133;-82
2023/08/23 05:06:44;;;;;;;2.95;1.35;;;;;;;;;;10294513;28;20105;-84
2023/08/23 05:11:50;;;;;;;2.55;1.45;;;;;;;;;;10295196;28;20085;-83
2023/08/23 05:16:56;;;;;;;2.25;1.00;;;;;;;;;;10295236;28;20046;-83
2023/08/23 05:21:59;;;;;;;2.35;1.33;;;;;;;;;;10283239;28;20086;-83
2023/08/23 05:27:04;;;;;;;2.88;1.15;;;;;;;;;;10299650;28;20504;-82
2023/08/23 05:32:07;;;;;;;2.38;1.52;;;;;;;;;;10296788;28;20108;-83
2023/08/23 05:37:13;;;;;;;1.70;1.45;;;;;;;;;;10307440;28;20055;-82
2023/08/23 05:42:19;;;;;;;1.80;1.20;;;;;;;;;;10280948;28;20415;-82
2023/08/23 05:47:23;;;;;;;2.22;1.67;;;;;;;;;;10282048;28;20086;-82
2023/08/23 05:52:26;;;;;;;1.55;1.40;;;;;;;;;;10277001;28;20151;-82
2023/08/23 05:57:31;;;;;;;4.05;1.40;;;;;;;;;;10312591;28;20046;-82
2023/08/23 06:02:35;;;;;;;3.92;1.30;;;;;;;;;;10283606;28;20054;-83
2023/08/23 06:07:38;;;;;;;2.58;1.55;;;;;;;;;;10275465;28;20215;-83
2023/08/23 06:12:43;;;;;;;3.08;1.40;;;;;;;;;;10286594;28;20142;-82
2023/08/23 06:17:49;;;;;;;2.83;1.52;;;;;;;;;;10283284;28;20405;-82
2023/08/23 06:22:53;;;;;;;1.73;1.20;;;;;;;;;;10280739;28;20073;-82
2023/08/23 06:27:57;;;;;;;1.90;1.33;;;;;;;;;;10282710;28;20145;-82
2023/08/23 06:33:00;;;;;;;1.50;1.30;;;;;;;;;;10281845;28;20154;-82
2023/08/23 06:38:05;;;;;;;2.03;1.33;;;;;;;;;;10286245;28;20050;-82
2023/08/23 06:43:17;;;;;;;2.08;1.17;;;;;;;;;;10296142;28;20529;-82
2023/08/23 06:48:20;;;;;;;2.85;1.40;;;;;;;;;;10296620;28;20061;-82
2023/08/23 06:53:24;;;;;;;2.17;1.40;;;;;;;;;;10305194;28;20105;-83
2023/08/23 06:58:28;;;;;;;1.48;1.33;;;;;;;;;;10286376;28;20130;-82
2023/08/23 08:19:57;;;;;;;4.85;2.85;;;;;;;;;;10127713;28;20063;-86
2023/08/23 08:25:02;;;;;;;4.63;2.53;;;;;;;;;;10219992;28;20109;-87
2023/08/23 08:30:09;;;;;;;5.47;3.58;;;;;;;;;;10251997;28;20162;-87
2023/08/23 08:36:04;;;;;;;6.60;2.28;;;;;;;;;;10252000;28;20047;-87
2023/08/23 08:41:09;;;;;;;3.45;2.33;;;;;;;;;;10239149;28;20090;-87
2023/08/23 08:46:14;;;;;;;9.13;4.57;;;;;;;;;;10256677;28;20043;-87
2023/08/23 08:51:46;;;;;;;3.30;2.30;;;;;;;;;;10256640;28;20297;-87
2023/08/23 08:56:54;;;;;;;5.38;2.10;;;;;;;;;;10247424;28;20477;-86
2023/08/23 09:01:59;;;;;;;3.13;1.60;;;;;;;;;;10255506;28;20067;-88
2023/08/23 09:07:05;;;;;;;2.20;1.70;;;;;;;;;;10261583;28;20616;-89
2023/08/23 09:12:11;;;;;;;5.32;2.10;;;;;;;;;;10264419;28;20062;-88
2023/08/23 09:17:16;;;;;;;2.00;1.70;;;;;;;;;;10259739;28;20047;-88
2023/08/23 09:29:08;;;;;;;1.60;1.27;;;;;;;;;;10261826;28;20075;-87
2023/08/23 09:34:13;;;;;;;2.00;1.67;;;;;;;;;;10276406;28;20047;-87
2023/08/23 09:53:14;;;;;;;3.13;1.70;;;;;;;;;;10231527;28;20028;-88
2023/08/23 09:58:20;;;;;;;3.97;1.80;;;;;;;;;;10261245;28;20105;-88
2023/08/23 10:53:28;;;;;;;1.63;1.00;;;;;;;;;;10270491;28;20133;-85
2023/08/23 10:58:34;;;;;;;1.23;0.65;;;;;;;;;;10273535;28;20101;-85
2023/08/23 11:03:44;;;;;;;0.77;0.68;;;;;;;;;;10273816;28;20066;-85
2023/08/23 11:08:48;;;;;;;0.60;0.60;;;;;;;;;;10276527;28;20543;-85
2023/08/23 11:13:55;;;;;;;1.42;0.52;;;;;;;;;;10271443;28;20102;-85
2023/08/23 11:18:58;;;;;;;0.75;0.63;;;;;;;;;;10263736;28;20097;-85
2023/08/23 11:24:04;;;;;;;0.60;0.47;;;;;;;;;;10262785;28;20062;-86
2023/08/23 11:29:09;;;;;;;0.90;0.43;;;;;;;;;;10280733;28;20098;-85
2023/08/23 11:34:17;;;;;;;;;;;;;;;;;;10280379;28;20085;-84
2023/08/23 11:39:31;;;;;;;1.00;0.50;;;;;;;;;;10257820;28;19922;-85
2023/08/23 11:44:35;;;;;;;0.47;0.47;;;;;;;;;;10258316;28;20051;-85
2023/08/23 11:49:39;;;;;;;;;;;;;;;;;;10265972;28;20137;-85
2023/08/23 11:54:44;;;;;;;0.90;0.50;;;;;;;;;;10279543;28;20380;-85
2023/08/23 12:35:51;;;;;;;1.08;0.38;;;;;;;;;;10232654;28;20118;-85
2023/08/23 12:40:58;;;;;;;2.08;0.45;;;;;;;;;;10214452;28;20133;-84
2023/08/23 12:46:02;;;;;;;0.45;0.32;;;;;;;;;;10234363;28;20138;-84
2023/08/23 12:51:05;;;;;;;0.87;0.30;;;;;;;;;;10215495;29;20753;-85
2023/08/23 12:56:10;;;;;;;0.63;0.30;;;;;;;;;;10217110;28;20142;-85
2023/08/23 13:01:13;;;;;;;0.63;0.35;;;;;;;;;;10235585;28;20077;-85
2023/08/23 13:06:20;;;;;;;0.20;0.20;;;;;;;;;;10259266;28;20059;-85
2023/08/23 13:11:25;;;;;;;0.65;0.50;;;;;;;;;;10258597;28;20049;-84
2023/08/23 14:32:56;;;;;;;0.60;0.52;;;;;;;;;;10014304;29;20123;-86
2023/08/23 14:37:59;;;;;;;1.00;0.60;;;;;;;;;;10134287;29;20052;-86
2023/08/23 14:43:04;;;;;;;2.15;0.70;;;;;;;;;;10171896;29;20051;-85
2023/08/23 14:48:09;;;;;;;;;;;;;;;;;;10189217;29;20064;-86
2023/08/23 14:53:12;;;;;;;0.93;0.50;;;;;;;;;;10172581;29;19923;-85
2023/08/23 14:58:18;;;;;;;0.43;0.43;;;;;;;;;;10171923;29;20135;-86
2023/08/23 15:03:22;;;;;;;1.30;0.73;;;;;;;;;;10194747;29;20111;-84
2023/08/23 15:08:26;;;;;;;;;;;;;;;;;;10188893;29;20524;-82
2023/08/23 15:13:30;;;;;;;1.38;0.60;;;;;;;;;;10191410;29;20013;-82
2023/08/23 15:18:34;;;;;;;1.03;0.67;;;;;;;;;;10196551;29;20104;-82
2023/08/23 15:23:40;;;;;;;1.23;0.90;;;;;;;;;;10196285;29;20055;-82
2023/08/23 15:28:43;;;;;;;0.82;0.60;;;;;;;;;;10194831;29;20138;-81
2023/08/23 15:33:54;;;;;;;1.08;0.57;;;;;;;;;;10177214;29;20231;-81
2023/08/23 15:38:57;;;;;;;1.90;0.70;;;;;;;;;;10193137;28;20046;-82
2023/08/23 15:44:01;;;;;;;2.05;0.90;;;;;;;;;;10259626;28;20508;-82
2023/08/23 15:49:05;;;;;;;0.63;0.60;;;;;;;;;;10277649;28;20428;-82
2023/08/23 15:54:09;;;;;;;0.68;0.45;;;;;;;;;;10259519;28;20492;-82
2023/08/23 15:59:12;;;;;;;2.50;0.70;;;;;;;;;;10264791;28;20039;-82
2023/08/23 16:04:17;;;;;;;2.67;0.90;;;;;;;;;;10265999;28;20150;-82
2023/08/23 16:09:21;;;;;;;1.92;0.80;;;;;;;;;;10268124;28;20082;-82
2023/08/23 16:14:26;;;;;;;1.67;0.80;;;;;;;;;;10276300;28;20134;-81
2023/08/23 16:19:32;;;;;;;1.10;0.70;;;;;;;;;;10274186;28;20142;-83
2023/08/23 16:24:37;;;;;;;0.98;0.75;;;;;;;;;;10266588;28;20527;-83
2023/08/23 16:29:41;;;;;;;1.02;0.70;;;;;;;;;;10263578;28;20079;-83
2023/08/23 16:34:46;;;;;;;0.95;0.47;;;;;;;;;;10280299;28;20134;-85
2023/08/23 16:39:50;;;;;;;0.85;0.60;;;;;;;;;;10262739;28;20133;-85
2023/08/23 16:44:53;;;;;;;1.48;0.77;;;;;;;;;;10267418;28;20061;-85
2023/08/23 16:49:58;;;;;;;3.30;1.60;;;;;;;;;;10266933;28;20133;-83
2023/08/23 16:55:04;;;;;;;3.67;1.17;;;;;;;;;;10266908;28;20635;-83
2023/08/23 17:00:09;;;;;;;3.00;1.00;;;;;;;;;;10282507;28;20053;-85
2023/08/23 17:05:15;;;;;;;6.22;0.80;;;;;;;;;;10268226;28;20609;-83
2023/08/23 17:10:19;;;;;;;1.13;0.80;;;;;;;;;;10263893;28;20050;-83
2023/08/23 17:15:23;;;;;;;1.77;0.80;;;;;;;;;;10280329;28;20118;-83
2023/08/23 17:20:27;;;;;;;1.55;1.00;;;;;;;;;;10265007;28;20117;-82
2023/08/23 17:25:31;;;;;;;0.60;0.50;;;;;;;;;;10287922;28;20061;-82
2023/08/23 17:30:34;;;;;;;0.98;0.70;;;;;;;;;;10297767;28;20086;-82
2023/08/23 17:35:39;;;;;;;2.17;0.50;;;;;;;;;;10274624;28;20072;-82
2023/08/23 17:40:42;;;;;;;0.77;0.60;;;;;;;;;;10261441;28;20126;-82
2023/08/23 17:45:45;;;;;;;0.93;0.63;;;;;;;;;;10275720;28;20078;-82
2023/08/23 17:50:50;;;;;;;1.38;0.50;;;;;;;;;;10265762;28;20509;-81
2023/08/23 17:56:00;;;;;;;0.93;0.55;;;;;;;;;;10259225;28;20309;-82
2023/08/23 18:01:12;;;;;;;1.48;1.00;;;;;;;;;;10278859;28;20126;-82
2023/08/23 18:06:17;;;;;;;0.93;0.75;;;;;;;;;;10263946;28;20118;-82
2023/08/23 18:11:21;;;;;;;2.42;0.90;;;;;;;;;;10264281;28;20125;-82
2023/08/23 18:16:24;;;;;;;1.20;0.90;;;;;;;;;;10273407;28;20137;-82
2023/08/23 18:21:29;;;;;;;1.15;0.85;;;;;;;;;;10257743;28;20098;-82
2023/08/23 18:26:32;;;;;;;1.83;0.90;;;;;;;;;;10280558;28;20713;-81
2023/08/23 18:31:36;;;;;;;3.63;1.02;;;;;;;;;;10262698;28;20290;-81
2023/08/23 18:36:43;;;;;;;1.98;0.98;;;;;;;;;;10263241;28;20137;-81
2023/08/23 18:41:46;;;;;;;1.77;0.80;;;;;;;;;;10261616;28;20039;-82
2023/08/23 18:46:50;;;;;;;2.13;0.80;;;;;;;;;;10261921;28;20097;-81
2023/08/23 18:51:55;;;;;;;1.20;0.73;;;;;;;;;;10261128;28;20062;-82
2023/08/23 18:56:58;;;;;;;1.77;1.20;;;;;;;;;;10268733;28;20138;-82
2023/08/23 19:02:01;;;;;;;4.60;1.17;;;;;;;;;;10280169;23;20046;-83
2023/08/23 19:07:07;;;;;;;2.80;1.10;;;;;;;;;;10299225;28;20050;-83
2023/08/23 19:12:11;;;;;;;1.63;0.77;;;;;;;;;;10305162;28;20050;-83
2023/08/23 19:17:14;;;;;;;1.40;0.90;;;;;;;;;;10317244;28;20133;-83
2023/08/23 19:22:19;;;;;;;4.07;1.00;;;;;;;;;;10316512;28;20464;-82
2023/08/23 19:27:25;;;;;;;1.52;1.05;;;;;;;;;;10317211;28;20085;-83
2023/08/23 19:32:31;;;;;;;2.08;0.95;;;;;;;;;;10322519;28;20051;-82
2023/08/23 19:37:35;;;;;;;1.98;1.10;;;;;;;;;;10317799;28;20058;-83
2023/08/23 19:42:39;;;;;;;2.03;1.00;;;;;;;;;;10307675;28;20042;-82
2023/08/23 19:47:42;;;;;;;1.42;1.15;;;;;;;;;;10297518;28;20060;-83
2023/08/23 19:52:47;;;;;;;3.60;1.10;;;;;;;;;;10306453;28;20077;-82
2023/08/23 19:57:50;;;;;;;1.73;1.13;;;;;;;;;;10323109;28;20054;-83
2023/08/23 20:02:54;;;;;;;2.20;1.17;;;;;;;;;;10322930;28;20042;-85
2023/08/23 20:08:00;;;;;;;0.95;0.75;;;;;;;;;;10307000;28;20130;-85
2023/08/23 20:13:04;;;;;;;1.38;1.00;;;;;;;;;;10321826;28;20398;-85
2023/08/23 20:18:07;;;;;;;1.48;1.20;;;;;;;;;;10311691;28;20586;-85
2023/08/23 20:23:12;;;;;;;1.58;0.82;;;;;;;;;;10304076;28;20050;-85
2023/08/23 20:28:16;;;;;;;2.15;1.23;;;;;;;;;;10297476;28;20530;-85
2023/08/23 20:33:19;;;;;;;2.13;0.77;;;;;;;;;;10294340;28;20043;-85
2023/08/23 20:38:24;;;;;;;1.30;0.88;;;;;;;;;;10295074;28;20063;-84
2023/08/23 20:43:27;;;;;;;1.65;1.05;;;;;;;;;;10289210;28;20050;-85
2023/08/23 20:48:33;;;;;;;1.42;0.90;;;;;;;;;;10307219;28;20054;-84
2023/08/23 20:53:38;;;;;;;1.58;1.00;;;;;;;;;;10311513;28;20106;-86
2023/08/23 20:58:41;;;;;;;2.00;1.00;;;;;;;;;;10311687;28;21252;-85
2023/08/23 21:03:44;;;;;;;2.15;0.85;;;;;;;;;;10304969;28;20170;-84
2023/08/23 21:08:50;;;;;;;2.15;1.08;;;;;;;;;;10296353;28;20576;-84
2023/08/23 21:13:54;;;;;;;1.88;1.08;;;;;;;;;;10312420;28;20097;-86
2023/08/23 21:18:59;;;;;;;2.63;1.23;;;;;;;;;;10316604;28;20050;-84
2023/08/23 21:24:04;;;;;;;1.98;1.10;;;;;;;;;;10317593;28;20030;-85
2023/08/23 21:29:07;;;;;;;1.70;0.90;;;;;;;;;;10311538;28;20082;-85
2023/08/23 21:34:11;;;;;;;1.35;0.90;;;;;;;;;;10294006;28;20094;-84
2023/08/23 21:39:15;;;;;;;1.63;1.00;;;;;;;;;;10289924;28;20046;-84
2023/08/23 21:44:19;;;;;;;2.03;1.00;;;;;;;;;;10313748;28;20054;-84
2023/08/23 21:49:22;;;;;;;2.60;1.10;;;;;;;;;;10315478;28;20100;-85
2023/08/23 21:54:27;;;;;;;1.77;0.90;;;;;;;;;;10315688;28;20074;-84
2023/08/23 21:59:30;;;;;;;1.42;0.90;;;;;;;;;;10299368;28;20086;-84
2023/08/23 22:04:34;;;;;;;4.10;1.10;;;;;;;;;;10304900;28;20051;-83
2023/08/23 22:09:38;;;;;;;1.73;1.00;;;;;;;;;;10307773;28;20133;-85
2023/08/23 22:14:42;;;;;;;2.80;1.00;;;;;;;;;;10325314;28;20117;-85
2023/08/23 22:19:45;;;;;;;1.92;0.80;;;;;;;;;;10302087;28;20078;-84
2023/08/23 22:24:49;;;;;;;2.00;1.00;;;;;;;;;;10321324;28;20141;-84
2023/08/23 22:29:53;;;;;;;2.67;0.93;;;;;;;;;;10293930;28;20142;-83
2023/08/23 22:34:56;;;;;;;2.22;1.08;;;;;;;;;;10300899;28;20046;-84
2023/08/23 22:40:01;;;;;;;1.30;1.00;;;;;;;;;;10317281;28;20423;-84
2023/08/23 22:45:05;;;;;;;1.63;1.02;;;;;;;;;;10314141;28;20523;-84
2023/08/23 22:50:09;;;;;;;1.80;1.00;;;;;;;;;;10313515;28;20062;-84
2023/08/23 22:55:14;;;;;;;1.95;1.10;;;;;;;;;;10311712;28;20133;-84
2023/08/23 23:00:17;;;;;;;2.03;0.90;;;;;;;;;;10295142;28;20062;-84
2023/08/23 23:05:21;;;;;;;1.77;0.98;;;;;;;;;;10299601;28;20053;-84
2023/08/23 23:10:26;;;;;;;1.55;0.80;;;;;;;;;;10304508;28;20555;-83
2023/08/23 23:15:29;;;;;;;5.60;0.93;;;;;;;;;;10303774;28;20137;-84
2023/08/23 23:20:35;;;;;;;1.77;0.90;;;;;;;;;;10304627;28;20046;-84
2023/08/23 23:25:43;;;;;;;;;;;;;;;;;;10327238;28;20074;-83
2023/08/23 23:30:46;;;;;;;2.03;0.80;;;;;;;;;;10322316;28;19957;-84
2023/08/23 23:35:49;;;;;;;0.85;0.77;;;;;;;;;;10310662;28;20061;-83
2023/08/23 23:40:54;;;;;;;1.55;1.10;;;;;;;;;;10320951;28;20109;-84
2023/08/23 23:45:57;;;;;;;1.40;0.77;;;;;;;;;;10315430;28;20133;-84
2023/08/23 23:51:02;;;;;;;1.10;0.75;;;;;;;;;;10307426;28;20062;-82
2023/08/23 23:56:07;;;;;;;1.58;0.77;;;;;;;;;;10315239;28;20070;-83
